sensor_id;sensor_type;location;lat;lon;timestamp;P1;durP1;ratioP1;P2;durP2;ratioP2
4939;SDS011;2485;49.326;7.214;2023-03-04T00:02:04;73.80;;;25.17;;
4939;SDS011;2485;49.326;7.214;2023-03-04T00:04:30;73.67;;;24.83;;
4939;SDS011;2485;49.326;7.214;2023-03-04T00:06:57;67.00;;;25.33;;
4939;SDS011;2485;49.326;7.214;2023-03-04T00:09:23;63.77;;;24.53;;
4939;SDS011;2485;49.326;7.214;2023-03-04T00:11:49;68.47;;;24.27;;
4939;SDS011;2485;49.326;7.214;2023-03-04T00:14:16;75.07;;;25.63;;
4939;SDS011;2485;49.326;7.214;2023-03-04T00:16:42;64.93;;;23.13;;
4939;SDS011;2485;49.326;7.214;2023-03-04T00:19:10;69.20;;;25.97;;
4939;SDS011;2485;49.326;7.214;2023-03-04T00:21:36;68.67;;;25.73;;
4939;SDS011;2485;49.326;7.214;2023-03-04T00:24:02;74.63;;;26.10;;
4939;SDS011;2485;49.326;7.214;2023-03-04T00:26:29;72.60;;;24.33;;
4939;SDS011;2485;49.326;7.214;2023-03-04T00:28:56;65.17;;;23.27;;
4939;SDS011;2485;49.326;7.214;2023-03-04T00:31:22;71.70;;;24.30;;
4939;SDS011;2485;49.326;7.214;2023-03-04T00:33:48;72.00;;;24.10;;
4939;SDS011;2485;49.326;7.214;2023-03-04T00:36:16;68.73;;;24.20;;
4939;SDS011;2485;49.326;7.214;2023-03-04T00:38:42;79.17;;;24.33;;
4939;SDS011;2485;49.326;7.214;2023-03-04T00:41:09;63.47;;;21.97;;
4939;SDS011;2485;49.326;7.214;2023-03-04T00:43:35;72.30;;;23.20;;
4939;SDS011;2485;49.326;7.214;2023-03-04T00:46:01;63.10;;;22.67;;
4939;SDS011;2485;49.326;7.214;2023-03-04T00:48:28;62.20;;;23.87;;
4939;SDS011;2485;49.326;7.214;2023-03-04T00:50:54;69.17;;;25.30;;
4939;SDS011;2485;49.326;7.214;2023-03-04T00:53:22;61.80;;;24.83;;
4939;SDS011;2485;49.326;7.214;2023-03-04T00:55:48;65.70;;;25.90;;
4939;SDS011;2485;49.326;7.214;2023-03-04T00:58:15;68.73;;;23.80;;
4939;SDS011;2485;49.326;7.214;2023-03-04T01:00:41;70.50;;;25.53;;
4939;SDS011;2485;49.326;7.214;2023-03-04T01:03:07;75.93;;;24.87;;
4939;SDS011;2485;49.326;7.214;2023-03-04T01:05:34;70.77;;;23.90;;
4939;SDS011;2485;49.326;7.214;2023-03-04T01:08:00;79.30;;;28.33;;
4939;SDS011;2485;49.326;7.214;2023-03-04T01:10:28;75.13;;;27.63;;
4939;SDS011;2485;49.326;7.214;2023-03-04T01:12:54;63.77;;;26.23;;
4939;SDS011;2485;49.326;7.214;2023-03-04T01:15:21;84.83;;;28.53;;
4939;SDS011;2485;49.326;7.214;2023-03-04T01:17:47;77.20;;;28.57;;
4939;SDS011;2485;49.326;7.214;2023-03-04T01:20:14;85.10;;;31.30;;
4939;SDS011;2485;49.326;7.214;2023-03-04T01:22:40;85.17;;;29.63;;
4939;SDS011;2485;49.326;7.214;2023-03-04T01:25:07;96.70;;;30.20;;
4939;SDS011;2485;49.326;7.214;2023-03-04T01:27:35;84.47;;;25.97;;
4939;SDS011;2485;49.326;7.214;2023-03-04T01:30:02;72.83;;;27.20;;
4939;SDS011;2485;49.326;7.214;2023-03-04T01:32:28;67.80;;;27.50;;
4939;SDS011;2485;49.326;7.214;2023-03-04T01:34:54;79.70;;;26.60;;
4939;SDS011;2485;49.326;7.214;2023-03-04T01:37:21;74.33;;;27.00;;
4939;SDS011;2485;49.326;7.214;2023-03-04T01:39:47;81.10;;;27.80;;
4939;SDS011;2485;49.326;7.214;2023-03-04T01:42:15;82.77;;;27.53;;
4939;SDS011;2485;49.326;7.214;2023-03-04T01:44:44;79.23;;;26.53;;
4939;SDS011;2485;49.326;7.214;2023-03-04T01:47:11;80.47;;;27.10;;
4939;SDS011;2485;49.326;7.214;2023-03-04T01:49:37;83.83;;;28.63;;
4939;SDS011;2485;49.326;7.214;2023-03-04T01:52:04;91.53;;;28.40;;
4939;SDS011;2485;49.326;7.214;2023-03-04T01:54:31;81.47;;;25.73;;
4939;SDS011;2485;49.326;7.214;2023-03-04T01:56:57;75.97;;;26.20;;
4939;SDS011;2485;49.326;7.214;2023-03-04T01:59:25;93.00;;;29.10;;
4939;SDS011;2485;49.326;7.214;2023-03-04T02:01:53;86.70;;;26.77;;
4939;SDS011;2485;49.326;7.214;2023-03-04T02:04:21;91.80;;;27.97;;
4939;SDS011;2485;49.326;7.214;2023-03-04T02:06:48;77.63;;;26.73;;
4939;SDS011;2485;49.326;7.214;2023-03-04T02:09:15;105.37;;;30.43;;
4939;SDS011;2485;49.326;7.214;2023-03-04T02:11:42;84.33;;;27.83;;
4939;SDS011;2485;49.326;7.214;2023-03-04T02:14:09;75.67;;;25.70;;
4939;SDS011;2485;49.326;7.214;2023-03-04T02:16:35;79.77;;;26.90;;
4939;SDS011;2485;49.326;7.214;2023-03-04T02:19:04;88.50;;;28.40;;
4939;SDS011;2485;49.326;7.214;2023-03-04T02:21:32;89.43;;;28.33;;
4939;SDS011;2485;49.326;7.214;2023-03-04T02:24:02;87.87;;;28.53;;
4939;SDS011;2485;49.326;7.214;2023-03-04T02:26:32;92.87;;;29.57;;
4939;SDS011;2485;49.326;7.214;2023-03-04T02:28:59;88.80;;;28.93;;
4939;SDS011;2485;49.326;7.214;2023-03-04T02:31:26;91.73;;;27.97;;
4939;SDS011;2485;49.326;7.214;2023-03-04T02:33:55;93.63;;;26.00;;
4939;SDS011;2485;49.326;7.214;2023-03-04T02:36:22;89.97;;;26.47;;
4939;SDS011;2485;49.326;7.214;2023-03-04T02:38:49;78.50;;;25.00;;
4939;SDS011;2485;49.326;7.214;2023-03-04T02:41:15;89.87;;;26.20;;
4939;SDS011;2485;49.326;7.214;2023-03-04T02:43:44;86.90;;;25.13;;
4939;SDS011;2485;49.326;7.214;2023-03-04T02:46:11;77.10;;;24.47;;
4939;SDS011;2485;49.326;7.214;2023-03-04T02:48:38;83.30;;;24.57;;
4939;SDS011;2485;49.326;7.214;2023-03-04T02:51:04;86.10;;;26.80;;
4939;SDS011;2485;49.326;7.214;2023-03-04T02:53:30;74.30;;;25.57;;
4939;SDS011;2485;49.326;7.214;2023-03-04T02:55:57;77.40;;;26.23;;
4939;SDS011;2485;49.326;7.214;2023-03-04T02:58:23;87.40;;;25.90;;
4939;SDS011;2485;49.326;7.214;2023-03-04T03:00:51;82.83;;;25.30;;
4939;SDS011;2485;49.326;7.214;2023-03-04T03:03:17;83.50;;;24.70;;
4939;SDS011;2485;49.326;7.214;2023-03-04T03:05:44;94.57;;;29.20;;
4939;SDS011;2485;49.326;7.214;2023-03-04T03:08:10;89.93;;;26.43;;
4939;SDS011;2485;49.326;7.214;2023-03-04T03:10:36;93.40;;;25.87;;
4939;SDS011;2485;49.326;7.214;2023-03-04T03:13:03;96.40;;;26.27;;
4939;SDS011;2485;49.326;7.214;2023-03-04T03:15:29;80.90;;;24.73;;
4939;SDS011;2485;49.326;7.214;2023-03-04T03:17:57;90.97;;;27.60;;
4939;SDS011;2485;49.326;7.214;2023-03-04T03:20:23;90.90;;;27.15;;
4939;SDS011;2485;49.326;7.214;2023-03-04T03:22:50;84.93;;;24.40;;
4939;SDS011;2485;49.326;7.214;2023-03-04T03:25:17;99.57;;;26.53;;
4939;SDS011;2485;49.326;7.214;2023-03-04T03:27:44;85.77;;;24.77;;
4939;SDS011;2485;49.326;7.214;2023-03-04T03:30:11;98.23;;;27.00;;
4939;SDS011;2485;49.326;7.214;2023-03-04T03:32:37;88.97;;;25.80;;
4939;SDS011;2485;49.326;7.214;2023-03-04T03:35:05;93.33;;;26.63;;
4939;SDS011;2485;49.326;7.214;2023-03-04T03:37:32;77.33;;;23.67;;
4939;SDS011;2485;49.326;7.214;2023-03-04T03:39:58;97.40;;;27.80;;
4939;SDS011;2485;49.326;7.214;2023-03-04T03:42:24;89.70;;;24.17;;
4939;SDS011;2485;49.326;7.214;2023-03-04T03:44:51;85.27;;;24.73;;
4939;SDS011;2485;49.326;7.214;2023-03-04T03:47:17;92.43;;;26.80;;
4939;SDS011;2485;49.326;7.214;2023-03-04T03:49:43;87.17;;;24.83;;
4939;SDS011;2485;49.326;7.214;2023-03-04T03:52:11;91.27;;;24.87;;
4939;SDS011;2485;49.326;7.214;2023-03-04T03:54:38;95.40;;;26.30;;
4939;SDS011;2485;49.326;7.214;2023-03-04T03:57:04;93.53;;;25.70;;
4939;SDS011;2485;49.326;7.214;2023-03-04T03:59:30;91.97;;;23.87;;
4939;SDS011;2485;49.326;7.214;2023-03-04T04:01:57;82.67;;;25.60;;
4939;SDS011;2485;49.326;7.214;2023-03-04T04:04:23;92.63;;;24.83;;
4939;SDS011;2485;49.326;7.214;2023-03-04T04:06:49;88.23;;;22.93;;
4939;SDS011;2485;49.326;7.214;2023-03-04T04:09:17;98.27;;;25.30;;
4939;SDS011;2485;49.326;7.214;2023-03-04T04:11:45;83.00;;;24.83;;
4939;SDS011;2485;49.326;7.214;2023-03-04T04:14:12;82.17;;;23.37;;
4939;SDS011;2485;49.326;7.214;2023-03-04T04:16:38;94.57;;;25.07;;
4939;SDS011;2485;49.326;7.214;2023-03-04T04:19:04;91.90;;;25.30;;
4939;SDS011;2485;49.326;7.214;2023-03-04T04:21:31;82.03;;;24.10;;
4939;SDS011;2485;49.326;7.214;2023-03-04T04:23:57;83.87;;;23.93;;
4939;SDS011;2485;49.326;7.214;2023-03-04T04:26:25;85.50;;;25.37;;
4939;SDS011;2485;49.326;7.214;2023-03-04T04:28:51;84.57;;;23.23;;
4939;SDS011;2485;49.326;7.214;2023-03-04T04:31:18;97.67;;;23.87;;
4939;SDS011;2485;49.326;7.214;2023-03-04T04:33:44;78.60;;;25.10;;
4939;SDS011;2485;49.326;7.214;2023-03-04T04:36:12;94.67;;;27.27;;
4939;SDS011;2485;49.326;7.214;2023-03-04T04:38:44;92.70;;;25.20;;
4939;SDS011;2485;49.326;7.214;2023-03-04T04:41:16;102.23;;;26.17;;
4939;SDS011;2485;49.326;7.214;2023-03-04T04:43:44;85.77;;;23.03;;
4939;SDS011;2485;49.326;7.214;2023-03-04T04:46:11;93.53;;;26.40;;
4939;SDS011;2485;49.326;7.214;2023-03-04T04:48:37;91.20;;;24.63;;
4939;SDS011;2485;49.326;7.214;2023-03-04T04:51:04;95.63;;;25.37;;
4939;SDS011;2485;49.326;7.214;2023-03-04T04:53:30;94.10;;;24.43;;
4939;SDS011;2485;49.326;7.214;2023-03-04T04:55:56;92.60;;;25.47;;
4939;SDS011;2485;49.326;7.214;2023-03-04T04:58:23;94.17;;;25.23;;
4939;SDS011;2485;49.326;7.214;2023-03-04T05:00:50;97.90;;;24.77;;
4939;SDS011;2485;49.326;7.214;2023-03-04T05:03:18;82.57;;;25.80;;
4939;SDS011;2485;49.326;7.214;2023-03-04T05:05:45;98.53;;;26.37;;
4939;SDS011;2485;49.326;7.214;2023-03-04T05:08:11;90.87;;;25.80;;
4939;SDS011;2485;49.326;7.214;2023-03-04T05:10:37;96.03;;;25.00;;
4939;SDS011;2485;49.326;7.214;2023-03-04T05:13:04;84.37;;;25.50;;
4939;SDS011;2485;49.326;7.214;2023-03-04T05:15:30;96.50;;;24.70;;
4939;SDS011;2485;49.326;7.214;2023-03-04T05:17:58;98.90;;;27.60;;
4939;SDS011;2485;49.326;7.214;2023-03-04T05:20:24;93.87;;;23.87;;
4939;SDS011;2485;49.326;7.214;2023-03-04T05:22:51;112.33;;;28.30;;
4939;SDS011;2485;49.326;7.214;2023-03-04T05:25:17;94.43;;;27.33;;
4939;SDS011;2485;49.326;7.214;2023-03-04T05:27:43;99.30;;;27.00;;
4939;SDS011;2485;49.326;7.214;2023-03-04T05:30:10;107.13;;;27.97;;
4939;SDS011;2485;49.326;7.214;2023-03-04T05:32:37;110.17;;;27.23;;
4939;SDS011;2485;49.326;7.214;2023-03-04T05:35:05;100.87;;;25.83;;
4939;SDS011;2485;49.326;7.214;2023-03-04T05:37:31;101.17;;;27.97;;
4939;SDS011;2485;49.326;7.214;2023-03-04T05:39:58;91.37;;;26.00;;
4939;SDS011;2485;49.326;7.214;2023-03-04T05:42:24;99.77;;;27.00;;
4939;SDS011;2485;49.326;7.214;2023-03-04T05:44:50;106.10;;;27.83;;
4939;SDS011;2485;49.326;7.214;2023-03-04T05:47:17;103.80;;;27.20;;
4939;SDS011;2485;49.326;7.214;2023-03-04T05:49:43;104.10;;;26.57;;
4939;SDS011;2485;49.326;7.214;2023-03-04T05:52:11;104.37;;;27.03;;
4939;SDS011;2485;49.326;7.214;2023-03-04T05:54:37;104.23;;;26.57;;
4939;SDS011;2485;49.326;7.214;2023-03-04T05:57:03;104.20;;;27.50;;
4939;SDS011;2485;49.326;7.214;2023-03-04T05:59:30;99.83;;;27.63;;
4939;SDS011;2485;49.326;7.214;2023-03-04T06:01:56;96.10;;;26.30;;
4939;SDS011;2485;49.326;7.214;2023-03-04T06:04:22;102.17;;;26.30;;
4939;SDS011;2485;49.326;7.214;2023-03-04T06:06:49;84.07;;;25.00;;
4939;SDS011;2485;49.326;7.214;2023-03-04T06:09:17;99.40;;;27.87;;
4939;SDS011;2485;49.326;7.214;2023-03-04T06:11:45;85.63;;;24.27;;
4939;SDS011;2485;49.326;7.214;2023-03-04T06:14:11;92.40;;;25.90;;
4939;SDS011;2485;49.326;7.214;2023-03-04T06:16:37;103.40;;;27.90;;
4939;SDS011;2485;49.326;7.214;2023-03-04T06:19:04;96.73;;;25.73;;
4939;SDS011;2485;49.326;7.214;2023-03-04T06:21:30;100.30;;;26.63;;
4939;SDS011;2485;49.326;7.214;2023-03-04T06:23:56;110.07;;;26.90;;
4939;SDS011;2485;49.326;7.214;2023-03-04T06:26:24;105.50;;;27.77;;
4939;SDS011;2485;49.326;7.214;2023-03-04T06:28:50;106.30;;;27.13;;
4939;SDS011;2485;49.326;7.214;2023-03-04T06:31:20;101.17;;;26.53;;
4939;SDS011;2485;49.326;7.214;2023-03-04T06:33:47;112.50;;;27.90;;
4939;SDS011;2485;49.326;7.214;2023-03-04T06:36:13;94.47;;;28.50;;
4939;SDS011;2485;49.326;7.214;2023-03-04T06:38:40;102.17;;;30.17;;
4939;SDS011;2485;49.326;7.214;2023-03-04T06:41:06;122.27;;;29.80;;
4939;SDS011;2485;49.326;7.214;2023-03-04T06:43:34;99.97;;;28.13;;
4939;SDS011;2485;49.326;7.214;2023-03-04T06:46:01;107.70;;;28.40;;
4939;SDS011;2485;49.326;7.214;2023-03-04T06:48:27;110.80;;;28.90;;
4939;SDS011;2485;49.326;7.214;2023-03-04T06:50:54;111.20;;;28.80;;
4939;SDS011;2485;49.326;7.214;2023-03-04T06:53:21;106.43;;;29.73;;
4939;SDS011;2485;49.326;7.214;2023-03-04T06:55:47;124.43;;;31.60;;
4939;SDS011;2485;49.326;7.214;2023-03-04T06:58:14;112.13;;;30.97;;
4939;SDS011;2485;49.326;7.214;2023-03-04T07:00:42;113.30;;;30.83;;
4939;SDS011;2485;49.326;7.214;2023-03-04T07:03:09;113.00;;;30.70;;
4939;SDS011;2485;49.326;7.214;2023-03-04T07:05:36;104.60;;;30.90;;
4939;SDS011;2485;49.326;7.214;2023-03-04T07:08:02;110.73;;;30.90;;
4939;SDS011;2485;49.326;7.214;2023-03-04T07:10:30;123.10;;;33.97;;
4939;SDS011;2485;49.326;7.214;2023-03-04T07:12:56;124.30;;;36.60;;
4939;SDS011;2485;49.326;7.214;2023-03-04T07:15:22;145.33;;;36.87;;
4939;SDS011;2485;49.326;7.214;2023-03-04T07:17:50;115.23;;;37.47;;
4939;SDS011;2485;49.326;7.214;2023-03-04T07:20:16;118.60;;;33.80;;
4939;SDS011;2485;49.326;7.214;2023-03-04T07:22:43;115.13;;;34.60;;
4939;SDS011;2485;49.326;7.214;2023-03-04T07:25:09;133.47;;;35.03;;
4939;SDS011;2485;49.326;7.214;2023-03-04T07:27:36;130.87;;;34.03;;
4939;SDS011;2485;49.326;7.214;2023-03-04T07:30:03;106.83;;;31.40;;
4939;SDS011;2485;49.326;7.214;2023-03-04T07:32:29;116.67;;;33.83;;
4939;SDS011;2485;49.326;7.214;2023-03-04T07:34:59;100.60;;;32.17;;
4939;SDS011;2485;49.326;7.214;2023-03-04T07:37:25;114.93;;;32.77;;
4939;SDS011;2485;49.326;7.214;2023-03-04T07:39:51;121.27;;;34.07;;
4939;SDS011;2485;49.326;7.214;2023-03-04T07:42:18;112.97;;;29.37;;
4939;SDS011;2485;49.326;7.214;2023-03-04T07:44:44;103.97;;;32.03;;
4939;SDS011;2485;49.326;7.214;2023-03-04T07:47:10;99.37;;;30.57;;
4939;SDS011;2485;49.326;7.214;2023-03-04T07:49:37;103.33;;;33.63;;
4939;SDS011;2485;49.326;7.214;2023-03-04T07:52:05;106.47;;;32.43;;
4939;SDS011;2485;49.326;7.214;2023-03-04T07:54:31;105.97;;;32.87;;
4939;SDS011;2485;49.326;7.214;2023-03-04T07:56:58;110.10;;;32.87;;
4939;SDS011;2485;49.326;7.214;2023-03-04T07:59:24;111.87;;;34.50;;
4939;SDS011;2485;49.326;7.214;2023-03-04T08:01:50;110.73;;;32.30;;
4939;SDS011;2485;49.326;7.214;2023-03-04T08:04:17;114.87;;;33.10;;
4939;SDS011;2485;49.326;7.214;2023-03-04T08:06:43;120.13;;;33.40;;
4939;SDS011;2485;49.326;7.214;2023-03-04T08:09:11;119.47;;;36.73;;
4939;SDS011;2485;49.326;7.214;2023-03-04T08:11:38;118.57;;;38.07;;
4939;SDS011;2485;49.326;7.214;2023-03-04T08:14:04;105.17;;;34.07;;
4939;SDS011;2485;49.326;7.214;2023-03-04T08:16:30;106.83;;;34.60;;
4939;SDS011;2485;49.326;7.214;2023-03-04T08:18:57;111.07;;;34.70;;
4939;SDS011;2485;49.326;7.214;2023-03-04T08:21:24;113.57;;;35.43;;
4939;SDS011;2485;49.326;7.214;2023-03-04T08:23:51;104.13;;;34.00;;
4939;SDS011;2485;49.326;7.214;2023-03-04T08:26:19;116.03;;;36.80;;
4939;SDS011;2485;49.326;7.214;2023-03-04T08:28:46;92.73;;;33.47;;
4939;SDS011;2485;49.326;7.214;2023-03-04T08:31:13;97.77;;;33.30;;
4939;SDS011;2485;49.326;7.214;2023-03-04T08:33:39;105.13;;;35.50;;
4939;SDS011;2485;49.326;7.214;2023-03-04T08:36:06;98.33;;;32.40;;
4939;SDS011;2485;49.326;7.214;2023-03-04T08:38:32;87.80;;;31.30;;
4939;SDS011;2485;49.326;7.214;2023-03-04T08:40:59;83.13;;;31.50;;
4939;SDS011;2485;49.326;7.214;2023-03-04T08:43:28;83.03;;;32.70;;
4939;SDS011;2485;49.326;7.214;2023-03-04T08:45:55;88.47;;;32.40;;
4939;SDS011;2485;49.326;7.214;2023-03-04T08:48:21;89.33;;;31.77;;
4939;SDS011;2485;49.326;7.214;2023-03-04T08:50:50;87.27;;;30.47;;
4939;SDS011;2485;49.326;7.214;2023-03-04T08:53:17;88.57;;;30.80;;
4939;SDS011;2485;49.326;7.214;2023-03-04T08:55:44;80.23;;;30.83;;
4939;SDS011;2485;49.326;7.214;2023-03-04T08:58:10;69.40;;;27.10;;
4939;SDS011;2485;49.326;7.214;2023-03-04T09:00:40;90.77;;;30.37;;
4939;SDS011;2485;49.326;7.214;2023-03-04T09:03:07;76.60;;;31.47;;
4939;SDS011;2485;49.326;7.214;2023-03-04T09:05:33;80.27;;;29.83;;
4939;SDS011;2485;49.326;7.214;2023-03-04T09:08:00;82.13;;;30.60;;
4939;SDS011;2485;49.326;7.214;2023-03-04T09:10:26;80.97;;;30.17;;
4939;SDS011;2485;49.326;7.214;2023-03-04T09:12:53;77.80;;;28.03;;
4939;SDS011;2485;49.326;7.214;2023-03-04T09:15:19;54.60;;;18.73;;
4939;SDS011;2485;49.326;7.214;2023-03-04T09:17:47;64.27;;;24.50;;
4939;SDS011;2485;49.326;7.214;2023-03-04T09:20:13;67.80;;;26.57;;
4939;SDS011;2485;49.326;7.214;2023-03-04T09:22:40;54.47;;;23.00;;
4939;SDS011;2485;49.326;7.214;2023-03-04T09:25:07;59.90;;;24.03;;
4939;SDS011;2485;49.326;7.214;2023-03-04T09:27:34;64.00;;;23.60;;
4939;SDS011;2485;49.326;7.214;2023-03-04T09:30:00;63.63;;;25.20;;
4939;SDS011;2485;49.326;7.214;2023-03-04T09:32:26;63.87;;;24.30;;
4939;SDS011;2485;49.326;7.214;2023-03-04T09:34:54;56.17;;;25.10;;
4939;SDS011;2485;49.326;7.214;2023-03-04T09:37:21;51.57;;;20.50;;
4939;SDS011;2485;49.326;7.214;2023-03-04T09:39:47;51.47;;;21.10;;
4939;SDS011;2485;49.326;7.214;2023-03-04T09:42:17;43.37;;;18.77;;
4939;SDS011;2485;49.326;7.214;2023-03-04T09:44:47;42.23;;;19.07;;
4939;SDS011;2485;49.326;7.214;2023-03-04T09:47:14;49.90;;;18.60;;
4939;SDS011;2485;49.326;7.214;2023-03-04T09:49:42;45.57;;;18.43;;
4939;SDS011;2485;49.326;7.214;2023-03-04T09:52:13;42.43;;;18.17;;
4939;SDS011;2485;49.326;7.214;2023-03-04T09:54:49;41.60;;;18.07;;
4939;SDS011;2485;49.326;7.214;2023-03-04T09:57:22;46.93;;;17.37;;
4939;SDS011;2485;49.326;7.214;2023-03-04T09:59:54;35.70;;;17.03;;
4939;SDS011;2485;49.326;7.214;2023-03-04T10:02:24;36.43;;;15.07;;
4939;SDS011;2485;49.326;7.214;2023-03-04T10:04:58;42.07;;;14.90;;
4939;SDS011;2485;49.326;7.214;2023-03-04T10:07:27;37.57;;;15.57;;
4939;SDS011;2485;49.326;7.214;2023-03-04T10:09:55;41.07;;;15.00;;
4939;SDS011;2485;49.326;7.214;2023-03-04T10:12:23;33.73;;;13.37;;
4939;SDS011;2485;49.326;7.214;2023-03-04T10:14:51;32.00;;;12.10;;
4939;SDS011;2485;49.326;7.214;2023-03-04T10:17:22;28.10;;;11.80;;
4939;SDS011;2485;49.326;7.214;2023-03-04T10:19:54;35.20;;;12.53;;
4939;SDS011;2485;49.326;7.214;2023-03-04T10:22:23;32.30;;;11.70;;
4939;SDS011;2485;49.326;7.214;2023-03-04T10:24:53;42.77;;;14.30;;
4939;SDS011;2485;49.326;7.214;2023-03-04T10:27:20;28.23;;;11.70;;
4939;SDS011;2485;49.326;7.214;2023-03-04T10:29:48;37.30;;;12.37;;
4939;SDS011;2485;49.326;7.214;2023-03-04T10:32:15;26.70;;;10.70;;
4939;SDS011;2485;49.326;7.214;2023-03-04T10:34:42;27.97;;;10.30;;
4939;SDS011;2485;49.326;7.214;2023-03-04T10:37:09;24.30;;;10.90;;
4939;SDS011;2485;49.326;7.214;2023-03-04T10:39:37;33.50;;;11.93;;
4939;SDS011;2485;49.326;7.214;2023-03-04T10:42:08;28.10;;;10.17;;
4939;SDS011;2485;49.326;7.214;2023-03-04T10:44:50;27.70;;;11.30;;
4939;SDS011;2485;49.326;7.214;2023-03-04T10:47:16;30.07;;;11.20;;
4939;SDS011;2485;49.326;7.214;2023-03-04T10:49:48;25.23;;;10.90;;
4939;SDS011;2485;49.326;7.214;2023-03-04T10:52:17;29.73;;;10.57;;
4939;SDS011;2485;49.326;7.214;2023-03-04T10:54:46;27.33;;;11.70;;
4939;SDS011;2485;49.326;7.214;2023-03-04T10:57:14;27.90;;;11.50;;
4939;SDS011;2485;49.326;7.214;2023-03-04T10:59:44;34.37;;;10.80;;
4939;SDS011;2485;49.326;7.214;2023-03-04T11:02:24;25.83;;;10.40;;
4939;SDS011;2485;49.326;7.214;2023-03-04T11:04:53;30.53;;;11.67;;
4939;SDS011;2485;49.326;7.214;2023-03-04T11:07:20;25.33;;;10.50;;
4939;SDS011;2485;49.326;7.214;2023-03-04T11:09:46;31.77;;;9.80;;
4939;SDS011;2485;49.326;7.214;2023-03-04T11:12:15;26.03;;;9.13;;
4939;SDS011;2485;49.326;7.214;2023-03-04T11:14:44;25.03;;;9.93;;
4939;SDS011;2485;49.326;7.214;2023-03-04T11:17:20;24.50;;;10.03;;
4939;SDS011;2485;49.326;7.214;2023-03-04T11:19:47;12.00;;;5.37;;
4939;SDS011;2485;49.326;7.214;2023-03-04T11:22:17;28.37;;;9.27;;
4939;SDS011;2485;49.326;7.214;2023-03-04T11:24:46;23.10;;;10.03;;
4939;SDS011;2485;49.326;7.214;2023-03-04T11:27:17;23.10;;;9.43;;
4939;SDS011;2485;49.326;7.214;2023-03-04T11:29:45;24.20;;;9.70;;
4939;SDS011;2485;49.326;7.214;2023-03-04T11:32:15;33.20;;;10.50;;
4939;SDS011;2485;49.326;7.214;2023-03-04T11:34:45;22.00;;;10.40;;
4939;SDS011;2485;49.326;7.214;2023-03-04T11:37:15;29.47;;;11.13;;
4939;SDS011;2485;49.326;7.214;2023-03-04T11:39:45;24.73;;;9.77;;
4939;SDS011;2485;49.326;7.214;2023-03-04T11:42:16;25.23;;;9.90;;
4939;SDS011;2485;49.326;7.214;2023-03-04T11:44:47;19.33;;;8.20;;
4939;SDS011;2485;49.326;7.214;2023-03-04T11:47:17;27.90;;;11.20;;
4939;SDS011;2485;49.326;7.214;2023-03-04T11:49:53;35.50;;;10.50;;
4939;SDS011;2485;49.326;7.214;2023-03-04T11:52:23;21.53;;;8.43;;
4939;SDS011;2485;49.326;7.214;2023-03-04T11:54:58;24.73;;;10.57;;
4939;SDS011;2485;49.326;7.214;2023-03-04T11:57:30;19.90;;;8.57;;
4939;SDS011;2485;49.326;7.214;2023-03-04T12:00:03;27.53;;;8.30;;
4939;SDS011;2485;49.326;7.214;2023-03-04T12:02:35;21.63;;;7.10;;
4939;SDS011;2485;49.326;7.214;2023-03-04T12:05:10;23.40;;;9.70;;
4939;SDS011;2485;49.326;7.214;2023-03-04T12:10:24;26.20;;;8.80;;
4939;SDS011;2485;49.326;7.214;2023-03-04T12:12:57;24.83;;;9.53;;
4939;SDS011;2485;49.326;7.214;2023-03-04T12:15:29;28.37;;;9.90;;
4939;SDS011;2485;49.326;7.214;2023-03-04T12:18:00;26.90;;;10.03;;
4939;SDS011;2485;49.326;7.214;2023-03-04T12:23:16;19.70;;;8.83;;
4939;SDS011;2485;49.326;7.214;2023-03-04T12:25:48;22.47;;;9.43;;
4939;SDS011;2485;49.326;7.214;2023-03-04T12:28:20;29.90;;;10.83;;
4939;SDS011;2485;49.326;7.214;2023-03-04T12:30:54;25.37;;;9.47;;
4939;SDS011;2485;49.326;7.214;2023-03-04T12:33:26;21.80;;;10.33;;
4939;SDS011;2485;49.326;7.214;2023-03-04T12:35:59;28.40;;;9.67;;
4939;SDS011;2485;49.326;7.214;2023-03-04T12:38:37;21.50;;;8.73;;
4939;SDS011;2485;49.326;7.214;2023-03-04T12:41:13;29.30;;;11.57;;
4939;SDS011;2485;49.326;7.214;2023-03-04T12:43:46;28.57;;;10.50;;
4939;SDS011;2485;49.326;7.214;2023-03-04T12:46:20;24.30;;;10.50;;
4939;SDS011;2485;49.326;7.214;2023-03-04T12:48:54;27.87;;;11.13;;
4939;SDS011;2485;49.326;7.214;2023-03-04T12:51:24;26.70;;;10.23;;
4939;SDS011;2485;49.326;7.214;2023-03-04T12:53:57;31.83;;;11.30;;
4939;SDS011;2485;49.326;7.214;2023-03-04T12:56:25;28.53;;;10.13;;
4939;SDS011;2485;49.326;7.214;2023-03-04T12:58:53;35.77;;;11.60;;
4939;SDS011;2485;49.326;7.214;2023-03-04T13:01:22;24.30;;;10.07;;
4939;SDS011;2485;49.326;7.214;2023-03-04T13:03:51;16.47;;;6.70;;
4939;SDS011;2485;49.326;7.214;2023-03-04T13:06:23;29.53;;;9.10;;
4939;SDS011;2485;49.326;7.214;2023-03-04T13:08:56;22.80;;;7.20;;
4939;SDS011;2485;49.326;7.214;2023-03-04T13:19:51;24.10;;;10.70;;
4939;SDS011;2485;49.326;7.214;2023-03-04T13:22:25;30.67;;;11.70;;
4939;SDS011;2485;49.326;7.214;2023-03-04T13:24:52;37.60;;;13.50;;
4939;SDS011;2485;49.326;7.214;2023-03-04T13:30:07;28.50;;;11.57;;
4939;SDS011;2485;49.326;7.214;2023-03-04T13:32:52;32.47;;;11.10;;
4939;SDS011;2485;49.326;7.214;2023-03-04T13:38:12;32.13;;;11.63;;
4939;SDS011;2485;49.326;7.214;2023-03-04T13:40:46;31.73;;;10.63;;
4939;SDS011;2485;49.326;7.214;2023-03-04T13:43:35;111.50;;;41.17;;
4939;SDS011;2485;49.326;7.214;2023-03-04T13:48:57;27.93;;;10.90;;
4939;SDS011;2485;49.326;7.214;2023-03-04T13:51:25;26.20;;;10.80;;
4939;SDS011;2485;49.326;7.214;2023-03-04T13:53:53;34.00;;;13.20;;
4939;SDS011;2485;49.326;7.214;2023-03-04T13:56:21;27.90;;;11.50;;
4939;SDS011;2485;49.326;7.214;2023-03-04T13:58:48;34.87;;;12.97;;
4939;SDS011;2485;49.326;7.214;2023-03-04T14:01:23;29.10;;;12.00;;
4939;SDS011;2485;49.326;7.214;2023-03-04T14:03:49;33.43;;;11.53;;
4939;SDS011;2485;49.326;7.214;2023-03-04T14:06:16;24.13;;;9.43;;
4939;SDS011;2485;49.326;7.214;2023-03-04T14:08:43;26.00;;;9.50;;
4939;SDS011;2485;49.326;7.214;2023-03-04T14:11:15;26.43;;;9.63;;
4939;SDS011;2485;49.326;7.214;2023-03-04T14:13:42;26.90;;;9.47;;
4939;SDS011;2485;49.326;7.214;2023-03-04T14:16:09;24.87;;;8.60;;
4939;SDS011;2485;49.326;7.214;2023-03-04T14:18:35;23.00;;;8.57;;
4939;SDS011;2485;49.326;7.214;2023-03-04T14:21:02;19.83;;;8.43;;
4939;SDS011;2485;49.326;7.214;2023-03-04T14:23:30;20.97;;;8.43;;
4939;SDS011;2485;49.326;7.214;2023-03-04T14:26:08;32.37;;;9.97;;
4939;SDS011;2485;49.326;7.214;2023-03-04T14:28:42;24.27;;;8.60;;
4939;SDS011;2485;49.326;7.214;2023-03-04T14:31:14;21.97;;;8.40;;
4939;SDS011;2485;49.326;7.214;2023-03-04T14:33:42;20.93;;;7.00;;
4939;SDS011;2485;49.326;7.214;2023-03-04T14:36:12;23.03;;;8.87;;
4939;SDS011;2485;49.326;7.214;2023-03-04T14:38:40;17.50;;;7.70;;
4939;SDS011;2485;49.326;7.214;2023-03-04T14:41:08;13.77;;;6.20;;
4939;SDS011;2485;49.326;7.214;2023-03-04T14:43:36;20.17;;;7.53;;
4939;SDS011;2485;49.326;7.214;2023-03-04T14:46:06;18.43;;;7.90;;
4939;SDS011;2485;49.326;7.214;2023-03-04T14:48:33;17.43;;;7.40;;
4939;SDS011;2485;49.326;7.214;2023-03-04T14:51:01;16.83;;;4.90;;
4939;SDS011;2485;49.326;7.214;2023-03-04T14:53:28;14.37;;;5.03;;
4939;SDS011;2485;49.326;7.214;2023-03-04T14:55:56;14.93;;;6.03;;
4939;SDS011;2485;49.326;7.214;2023-03-04T14:58:23;9.70;;;2.80;;
4939;SDS011;2485;49.326;7.214;2023-03-04T15:01:01;16.57;;;6.40;;
4939;SDS011;2485;49.326;7.214;2023-03-04T15:03:29;14.03;;;4.83;;
4939;SDS011;2485;49.326;7.214;2023-03-04T15:06:04;12.97;;;5.80;;
4939;SDS011;2485;49.326;7.214;2023-03-04T15:08:31;11.47;;;5.13;;
4939;SDS011;2485;49.326;7.214;2023-03-04T15:11:00;11.43;;;5.83;;
4939;SDS011;2485;49.326;7.214;2023-03-04T15:13:36;12.80;;;5.00;;
4939;SDS011;2485;49.326;7.214;2023-03-04T15:16:03;13.87;;;5.07;;